sensor_id;sensor_type;location;lat;lon;timestamp;P1;durP1;ratioP1;P2;durP2;ratioP2
73599;SDS011;61877;48.246;9.220;2023-02-16T00:00:40;27.70;;;13.57;;
73599;SDS011;61877;48.246;9.220;2023-02-16T00:03:08;32.67;;;13.70;;
73599;SDS011;61877;48.246;9.220;2023-02-16T00:05:39;27.88;;;13.60;;
73599;SDS011;61877;48.246;9.220;2023-02-16T00:08:04;28.33;;;13.17;;
73599;SDS011;61877;48.246;9.220;2023-02-16T00:10:31;27.90;;;13.15;;
73599;SDS011;61877;48.246;9.220;2023-02-16T00:12:58;28.27;;;14.05;;
73599;SDS011;61877;48.246;9.220;2023-02-16T00:15:24;26.50;;;13.43;;
73599;SDS011;61877;48.246;9.220;2023-02-16T00:17:49;26.58;;;13.02;;
73599;SDS011;61877;48.246;9.220;2023-02-16T00:20:16;26.87;;;13.20;;
73599;SDS011;61877;48.246;9.220;2023-02-16T00:22:44;26.42;;;13.05;;
73599;SDS011;61877;48.246;9.220;2023-02-16T00:25:10;28.92;;;13.77;;
73599;SDS011;61877;48.246;9.220;2023-02-16T00:27:36;34.73;;;16.07;;
73599;SDS011;61877;48.246;9.220;2023-02-16T00:30:03;31.70;;;15.32;;
73599;SDS011;61877;48.246;9.220;2023-02-16T00:32:38;34.08;;;15.95;;
73599;SDS011;61877;48.246;9.220;2023-02-16T00:35:04;33.20;;;16.27;;
73599;SDS011;61877;48.246;9.220;2023-02-16T00:37:38;33.67;;;15.60;;
73599;SDS011;61877;48.246;9.220;2023-02-16T00:40:05;34.28;;;16.10;;
73599;SDS011;61877;48.246;9.220;2023-02-16T00:42:31;34.10;;;16.83;;
73599;SDS011;61877;48.246;9.220;2023-02-16T00:44:58;37.30;;;16.77;;
73599;SDS011;61877;48.246;9.220;2023-02-16T00:47:26;32.85;;;16.85;;
73599;SDS011;61877;48.246;9.220;2023-02-16T00:49:56;32.88;;;16.20;;
73599;SDS011;61877;48.246;9.220;2023-02-16T00:52:25;38.10;;;17.08;;
73599;SDS011;61877;48.246;9.220;2023-02-16T00:55:01;33.57;;;15.60;;
73599;SDS011;61877;48.246;9.220;2023-02-16T00:57:36;34.72;;;16.48;;
73599;SDS011;61877;48.246;9.220;2023-02-16T01:00:06;32.17;;;15.90;;
73599;SDS011;61877;48.246;9.220;2023-02-16T01:02:37;33.80;;;16.02;;
73599;SDS011;61877;48.246;9.220;2023-02-16T01:05:02;32.50;;;16.27;;
73599;SDS011;61877;48.246;9.220;2023-02-16T01:07:28;33.95;;;16.63;;
73599;SDS011;61877;48.246;9.220;2023-02-16T01:09:53;34.80;;;17.57;;
73599;SDS011;61877;48.246;9.220;2023-02-16T01:12:21;34.35;;;16.58;;
73599;SDS011;61877;48.246;9.220;2023-02-16T01:14:48;35.67;;;16.23;;
73599;SDS011;61877;48.246;9.220;2023-02-16T01:17:15;32.20;;;15.77;;
73599;SDS011;61877;48.246;9.220;2023-02-16T01:19:41;33.40;;;16.50;;
73599;SDS011;61877;48.246;9.220;2023-02-16T01:22:06;35.55;;;16.35;;
73599;SDS011;61877;48.246;9.220;2023-02-16T01:24:32;35.67;;;16.93;;
73599;SDS011;61877;48.246;9.220;2023-02-16T01:26:57;33.37;;;15.87;;
73599;SDS011;61877;48.246;9.220;2023-02-16T01:29:24;33.63;;;15.97;;
73599;SDS011;61877;48.246;9.220;2023-02-16T01:31:51;34.92;;;16.25;;
73599;SDS011;61877;48.246;9.220;2023-02-16T01:34:16;33.03;;;15.70;;
73599;SDS011;61877;48.246;9.220;2023-02-16T01:36:47;35.92;;;16.38;;
73599;SDS011;61877;48.246;9.220;2023-02-16T01:39:14;33.83;;;16.38;;
73599;SDS011;61877;48.246;9.220;2023-02-16T01:41:49;39.30;;;17.48;;
73599;SDS011;61877;48.246;9.220;2023-02-16T01:44:27;39.50;;;16.95;;
73599;SDS011;61877;48.246;9.220;2023-02-16T01:47:00;34.57;;;16.20;;
73599;SDS011;61877;48.246;9.220;2023-02-16T01:49:29;34.92;;;16.85;;
73599;SDS011;61877;48.246;9.220;2023-02-16T01:51:55;36.30;;;16.60;;
73599;SDS011;61877;48.246;9.220;2023-02-16T01:54:37;36.60;;;17.17;;
73599;SDS011;61877;48.246;9.220;2023-02-16T01:57:10;37.55;;;16.92;;
73599;SDS011;61877;48.246;9.220;2023-02-16T02:02:46;37.90;;;16.40;;
73599;SDS011;61877;48.246;9.220;2023-02-16T02:05:17;34.90;;;15.07;;
73599;SDS011;61877;48.246;9.220;2023-02-16T02:07:49;34.60;;;15.98;;
73599;SDS011;61877;48.246;9.220;2023-02-16T02:10:19;34.47;;;16.05;;
73599;SDS011;61877;48.246;9.220;2023-02-16T02:12:51;35.83;;;16.27;;
73599;SDS011;61877;48.246;9.220;2023-02-16T02:15:23;33.03;;;16.13;;
73599;SDS011;61877;48.246;9.220;2023-02-16T02:17:53;34.00;;;15.37;;
73599;SDS011;61877;48.246;9.220;2023-02-16T02:20:20;34.67;;;16.30;;
73599;SDS011;61877;48.246;9.220;2023-02-16T02:23:06;31.43;;;15.33;;
73599;SDS011;61877;48.246;9.220;2023-02-16T02:25:58;34.00;;;15.27;;
73599;SDS011;61877;48.246;9.220;2023-02-16T02:28:52;32.00;;;15.82;;
73599;SDS011;61877;48.246;9.220;2023-02-16T02:31:29;34.28;;;16.05;;
73599;SDS011;61877;48.246;9.220;2023-02-16T02:34:11;32.90;;;15.23;;
73599;SDS011;61877;48.246;9.220;2023-02-16T02:36:48;32.77;;;15.13;;
73599;SDS011;61877;48.246;9.220;2023-02-16T02:42:17;32.85;;;15.30;;
73599;SDS011;61877;48.246;9.220;2023-02-16T02:44:53;33.25;;;15.52;;
73599;SDS011;61877;48.246;9.220;2023-02-16T02:47:34;31.75;;;14.63;;
73599;SDS011;61877;48.246;9.220;2023-02-16T02:52:58;30.60;;;14.43;;
73599;SDS011;61877;48.246;9.220;2023-02-16T02:55:27;32.03;;;15.20;;
73599;SDS011;61877;48.246;9.220;2023-02-16T02:57:56;32.30;;;14.77;;
73599;SDS011;61877;48.246;9.220;2023-02-16T03:00:24;31.98;;;15.35;;
73599;SDS011;61877;48.246;9.220;2023-02-16T03:02:54;30.53;;;15.30;;
73599;SDS011;61877;48.246;9.220;2023-02-16T03:05:24;34.45;;;16.08;;
73599;SDS011;61877;48.246;9.220;2023-02-16T03:07:54;35.95;;;15.63;;
73599;SDS011;61877;48.246;9.220;2023-02-16T03:10:25;35.55;;;16.60;;
73599;SDS011;61877;48.246;9.220;2023-02-16T03:12:53;37.00;;;16.98;;
73599;SDS011;61877;48.246;9.220;2023-02-16T03:15:20;35.33;;;16.00;;
73599;SDS011;61877;48.246;9.220;2023-02-16T03:17:51;36.33;;;16.13;;
73599;SDS011;61877;48.246;9.220;2023-02-16T03:20:20;34.60;;;15.20;;
73599;SDS011;61877;48.246;9.220;2023-02-16T03:22:46;34.63;;;15.40;;
73599;SDS011;61877;48.246;9.220;2023-02-16T03:25:11;32.92;;;15.25;;
73599;SDS011;61877;48.246;9.220;2023-02-16T03:27:38;32.03;;;15.90;;
73599;SDS011;61877;48.246;9.220;2023-02-16T03:30:07;33.53;;;16.27;;
73599;SDS011;61877;48.246;9.220;2023-02-16T03:32:34;34.25;;;15.50;;
73599;SDS011;61877;48.246;9.220;2023-02-16T03:35:03;34.00;;;15.25;;
73599;SDS011;61877;48.246;9.220;2023-02-16T03:37:30;33.38;;;15.85;;
73599;SDS011;61877;48.246;9.220;2023-02-16T03:39:56;33.37;;;15.17;;
73599;SDS011;61877;48.246;9.220;2023-02-16T03:42:22;34.10;;;15.55;;
73599;SDS011;61877;48.246;9.220;2023-02-16T03:44:49;31.80;;;14.98;;
73599;SDS011;61877;48.246;9.220;2023-02-16T03:47:16;37.07;;;15.80;;
73599;SDS011;61877;48.246;9.220;2023-02-16T03:49:42;33.65;;;15.65;;
73599;SDS011;61877;48.246;9.220;2023-02-16T03:52:09;31.73;;;15.20;;
73599;SDS011;61877;48.246;9.220;2023-02-16T03:54:36;31.42;;;15.18;;
73599;SDS011;61877;48.246;9.220;2023-02-16T03:57:03;34.87;;;15.00;;
73599;SDS011;61877;48.246;9.220;2023-02-16T03:59:29;33.55;;;15.43;;
73599;SDS011;61877;48.246;9.220;2023-02-16T04:01:56;33.85;;;15.57;;
73599;SDS011;61877;48.246;9.220;2023-02-16T04:04:22;32.38;;;14.55;;
73599;SDS011;61877;48.246;9.220;2023-02-16T04:06:50;32.97;;;15.40;;
73599;SDS011;61877;48.246;9.220;2023-02-16T04:09:18;34.70;;;15.25;;
73599;SDS011;61877;48.246;9.220;2023-02-16T04:11:44;32.15;;;15.35;;
73599;SDS011;61877;48.246;9.220;2023-02-16T04:14:09;33.50;;;15.10;;
73599;SDS011;61877;48.246;9.220;2023-02-16T04:16:36;30.88;;;15.02;;
73599;SDS011;61877;48.246;9.220;2023-02-16T04:19:02;30.97;;;15.20;;
73599;SDS011;61877;48.246;9.220;2023-02-16T04:21:27;34.30;;;15.37;;
73599;SDS011;61877;48.246;9.220;2023-02-16T04:23:53;33.23;;;15.33;;
73599;SDS011;61877;48.246;9.220;2023-02-16T04:26:20;32.20;;;14.80;;
73599;SDS011;61877;48.246;9.220;2023-02-16T04:28:47;33.05;;;15.35;;
73599;SDS011;61877;48.246;9.220;2023-02-16T04:31:12;29.50;;;14.47;;
73599;SDS011;61877;48.246;9.220;2023-02-16T04:33:38;32.10;;;14.77;;
73599;SDS011;61877;48.246;9.220;2023-02-16T04:36:03;31.60;;;13.83;;
73599;SDS011;61877;48.246;9.220;2023-02-16T04:38:33;32.63;;;15.53;;
73599;SDS011;61877;48.246;9.220;2023-02-16T04:40:58;32.40;;;14.57;;
73599;SDS011;61877;48.246;9.220;2023-02-16T04:43:26;34.23;;;15.10;;
73599;SDS011;61877;48.246;9.220;2023-02-16T04:45:51;33.50;;;15.15;;
73599;SDS011;61877;48.246;9.220;2023-02-16T04:48:17;32.20;;;15.00;;
73599;SDS011;61877;48.246;9.220;2023-02-16T04:50:42;32.10;;;15.40;;
73599;SDS011;61877;48.246;9.220;2023-02-16T04:53:08;31.92;;;14.77;;
73599;SDS011;61877;48.246;9.220;2023-02-16T04:55:34;31.70;;;14.80;;
73599;SDS011;61877;48.246;9.220;2023-02-16T04:58:02;31.98;;;15.40;;
73599;SDS011;61877;48.246;9.220;2023-02-16T05:00:30;30.83;;;14.47;;
73599;SDS011;61877;48.246;9.220;2023-02-16T05:02:57;33.22;;;14.50;;
73599;SDS011;61877;48.246;9.220;2023-02-16T05:05:23;35.30;;;16.13;;
73599;SDS011;61877;48.246;9.220;2023-02-16T05:07:49;30.00;;;14.63;;
73599;SDS011;61877;48.246;9.220;2023-02-16T05:10:15;30.33;;;15.40;;
73599;SDS011;61877;48.246;9.220;2023-02-16T05:12:40;36.83;;;16.50;;
73599;SDS011;61877;48.246;9.220;2023-02-16T05:15:07;33.60;;;15.40;;
73599;SDS011;61877;48.246;9.220;2023-02-16T05:17:38;32.22;;;15.05;;
73599;SDS011;61877;48.246;9.220;2023-02-16T05:20:04;34.40;;;15.07;;
73599;SDS011;61877;48.246;9.220;2023-02-16T05:22:30;33.95;;;15.57;;
73599;SDS011;61877;48.246;9.220;2023-02-16T05:24:58;31.20;;;15.00;;
73599;SDS011;61877;48.246;9.220;2023-02-16T05:27:31;33.88;;;15.98;;
73599;SDS011;61877;48.246;9.220;2023-02-16T05:29:57;33.63;;;16.10;;
73599;SDS011;61877;48.246;9.220;2023-02-16T05:32:23;34.53;;;15.57;;
73599;SDS011;61877;48.246;9.220;2023-02-16T05:34:49;36.00;;;15.60;;
73599;SDS011;61877;48.246;9.220;2023-02-16T05:37:17;30.90;;;14.83;;
73599;SDS011;61877;48.246;9.220;2023-02-16T05:39:46;34.03;;;16.08;;
73599;SDS011;61877;48.246;9.220;2023-02-16T05:42:12;32.63;;;15.40;;
73599;SDS011;61877;48.246;9.220;2023-02-16T05:44:38;31.92;;;14.68;;
73599;SDS011;61877;48.246;9.220;2023-02-16T05:47:04;32.42;;;15.70;;
73599;SDS011;61877;48.246;9.220;2023-02-16T05:49:30;37.83;;;16.20;;
73599;SDS011;61877;48.246;9.220;2023-02-16T05:51:59;35.63;;;15.83;;
73599;SDS011;61877;48.246;9.220;2023-02-16T05:54:24;38.22;;;16.85;;
73599;SDS011;61877;48.246;9.220;2023-02-16T05:56:52;36.53;;;17.30;;
73599;SDS011;61877;48.246;9.220;2023-02-16T05:59:18;38.83;;;17.02;;
73599;SDS011;61877;48.246;9.220;2023-02-16T06:01:44;36.17;;;16.07;;
73599;SDS011;61877;48.246;9.220;2023-02-16T06:04:10;32.73;;;15.07;;
73599;SDS011;61877;48.246;9.220;2023-02-16T06:06:38;32.92;;;15.52;;
73599;SDS011;61877;48.246;9.220;2023-02-16T06:09:07;34.60;;;15.60;;
73599;SDS011;61877;48.246;9.220;2023-02-16T06:11:33;31.10;;;14.35;;
73599;SDS011;61877;48.246;9.220;2023-02-16T06:14:02;36.13;;;15.47;;
73599;SDS011;61877;48.246;9.220;2023-02-16T06:16:34;33.03;;;14.88;;
73599;SDS011;61877;48.246;9.220;2023-02-16T06:19:02;32.83;;;15.45;;
73599;SDS011;61877;48.246;9.220;2023-02-16T06:21:28;36.85;;;16.35;;
73599;SDS011;61877;48.246;9.220;2023-02-16T06:23:53;37.93;;;16.80;;
73599;SDS011;61877;48.246;9.220;2023-02-16T06:26:27;44.40;;;19.52;;
73599;SDS011;61877;48.246;9.220;2023-02-16T06:28:53;50.63;;;21.55;;
73599;SDS011;61877;48.246;9.220;2023-02-16T06:31:22;48.13;;;21.58;;
73599;SDS011;61877;48.246;9.220;2023-02-16T06:33:48;48.27;;;21.17;;
73599;SDS011;61877;48.246;9.220;2023-02-16T06:36:13;42.53;;;18.30;;
73599;SDS011;61877;48.246;9.220;2023-02-16T06:38:40;40.33;;;18.27;;
73599;SDS011;61877;48.246;9.220;2023-02-16T06:41:06;39.63;;;17.58;;
73599;SDS011;61877;48.246;9.220;2023-02-16T06:43:39;39.60;;;17.27;;
73599;SDS011;61877;48.246;9.220;2023-02-16T06:46:04;35.80;;;17.15;;
73599;SDS011;61877;48.246;9.220;2023-02-16T06:48:30;36.33;;;16.57;;
73599;SDS011;61877;48.246;9.220;2023-02-16T06:51:00;36.20;;;16.23;;
73599;SDS011;61877;48.246;9.220;2023-02-16T06:53:29;34.17;;;16.80;;
73599;SDS011;61877;48.246;9.220;2023-02-16T06:55:55;33.35;;;16.42;;
73599;SDS011;61877;48.246;9.220;2023-02-16T06:58:20;32.27;;;15.20;;
73599;SDS011;61877;48.246;9.220;2023-02-16T07:00:48;32.00;;;14.50;;
73599;SDS011;61877;48.246;9.220;2023-02-16T07:03:14;32.65;;;14.75;;
73599;SDS011;61877;48.246;9.220;2023-02-16T07:05:40;30.45;;;14.57;;
73599;SDS011;61877;48.246;9.220;2023-02-16T07:08:05;30.90;;;14.83;;
73599;SDS011;61877;48.246;9.220;2023-02-16T07:10:32;33.17;;;14.07;;
73599;SDS011;61877;48.246;9.220;2023-02-16T07:13:08;41.35;;;17.70;;
73599;SDS011;61877;48.246;9.220;2023-02-16T07:15:34;42.00;;;18.77;;
73599;SDS011;61877;48.246;9.220;2023-02-16T07:18:01;43.30;;;19.37;;
73599;SDS011;61877;48.246;9.220;2023-02-16T07:20:30;42.72;;;17.77;;
73599;SDS011;61877;48.246;9.220;2023-02-16T07:22:56;35.17;;;16.57;;
73599;SDS011;61877;48.246;9.220;2023-02-16T07:25:26;35.85;;;16.90;;
73599;SDS011;61877;48.246;9.220;2023-02-16T07:27:52;34.67;;;15.77;;
73599;SDS011;61877;48.246;9.220;2023-02-16T07:30:21;31.70;;;14.82;;
73599;SDS011;61877;48.246;9.220;2023-02-16T07:32:47;29.52;;;13.57;;
73599;SDS011;61877;48.246;9.220;2023-02-16T07:35:16;30.33;;;12.93;;
73599;SDS011;61877;48.246;9.220;2023-02-16T07:37:42;30.58;;;14.20;;
73599;SDS011;61877;48.246;9.220;2023-02-16T07:40:08;32.17;;;14.50;;
73599;SDS011;61877;48.246;9.220;2023-02-16T07:42:34;29.17;;;13.85;;
73599;SDS011;61877;48.246;9.220;2023-02-16T07:45:00;27.48;;;13.93;;
73599;SDS011;61877;48.246;9.220;2023-02-16T07:47:26;28.47;;;13.40;;
73599;SDS011;61877;48.246;9.220;2023-02-16T07:49:52;29.50;;;12.53;;
73599;SDS011;61877;48.246;9.220;2023-02-16T07:52:20;29.70;;;13.55;;
73599;SDS011;61877;48.246;9.220;2023-02-16T07:54:45;28.65;;;13.70;;
73599;SDS011;61877;48.246;9.220;2023-02-16T07:57:12;28.48;;;13.15;;
73599;SDS011;61877;48.246;9.220;2023-02-16T07:59:39;29.95;;;14.55;;
73599;SDS011;61877;48.246;9.220;2023-02-16T08:02:05;32.50;;;15.00;;
73599;SDS011;61877;48.246;9.220;2023-02-16T08:04:33;32.55;;;14.40;;
73599;SDS011;61877;48.246;9.220;2023-02-16T08:06:59;34.03;;;14.60;;
73599;SDS011;61877;48.246;9.220;2023-02-16T08:09:30;30.90;;;14.43;;
73599;SDS011;61877;48.246;9.220;2023-02-16T08:11:57;31.47;;;15.47;;
73599;SDS011;61877;48.246;9.220;2023-02-16T08:14:23;31.05;;;15.35;;
73599;SDS011;61877;48.246;9.220;2023-02-16T08:16:51;29.75;;;14.20;;
73599;SDS011;61877;48.246;9.220;2023-02-16T08:19:17;30.63;;;14.27;;
73599;SDS011;61877;48.246;9.220;2023-02-16T08:21:42;27.27;;;13.53;;
73599;SDS011;61877;48.246;9.220;2023-02-16T08:24:10;29.27;;;13.53;;
73599;SDS011;61877;48.246;9.220;2023-02-16T08:26:41;30.60;;;14.18;;
73599;SDS011;61877;48.246;9.220;2023-02-16T08:29:08;31.45;;;14.30;;
73599;SDS011;61877;48.246;9.220;2023-02-16T08:31:35;31.45;;;14.65;;
73599;SDS011;61877;48.246;9.220;2023-02-16T08:34:03;29.57;;;14.20;;
73599;SDS011;61877;48.246;9.220;2023-02-16T08:36:31;27.48;;;13.77;;
73599;SDS011;61877;48.246;9.220;2023-02-16T08:39:02;27.75;;;13.35;;
73599;SDS011;61877;48.246;9.220;2023-02-16T08:41:31;28.45;;;13.93;;
73599;SDS011;61877;48.246;9.220;2023-02-16T08:44:05;30.27;;;13.65;;
73599;SDS011;61877;48.246;9.220;2023-02-16T08:46:33;28.67;;;14.10;;
73599;SDS011;61877;48.246;9.220;2023-02-16T08:49:02;31.80;;;14.50;;
73599;SDS011;61877;48.246;9.220;2023-02-16T08:51:31;28.55;;;13.00;;
73599;SDS011;61877;48.246;9.220;2023-02-16T08:54:02;26.05;;;12.98;;
73599;SDS011;61877;48.246;9.220;2023-02-16T08:56:30;28.63;;;14.02;;
73599;SDS011;61877;48.246;9.220;2023-02-16T08:58:56;29.30;;;14.70;;
73599;SDS011;61877;48.246;9.220;2023-02-16T09:01:24;29.75;;;14.18;;
73599;SDS011;61877;48.246;9.220;2023-02-16T09:03:55;32.00;;;14.77;;
73599;SDS011;61877;48.246;9.220;2023-02-16T09:06:24;30.63;;;14.93;;
73599;SDS011;61877;48.246;9.220;2023-02-16T09:08:53;28.48;;;13.98;;
73599;SDS011;61877;48.246;9.220;2023-02-16T09:11:22;28.60;;;14.20;;
73599;SDS011;61877;48.246;9.220;2023-02-16T09:13:48;29.45;;;14.48;;
73599;SDS011;61877;48.246;9.220;2023-02-16T09:16:16;29.45;;;13.70;;
73599;SDS011;61877;48.246;9.220;2023-02-16T09:18:45;28.43;;;14.00;;
73599;SDS011;61877;48.246;9.220;2023-02-16T09:21:13;29.00;;;14.00;;
73599;SDS011;61877;48.246;9.220;2023-02-16T09:23:42;25.13;;;13.32;;
73599;SDS011;61877;48.246;9.220;2023-02-16T09:26:12;27.58;;;13.27;;
73599;SDS011;61877;48.246;9.220;2023-02-16T09:28:39;25.50;;;13.38;;
73599;SDS011;61877;48.246;9.220;2023-02-16T09:31:09;26.73;;;13.53;;
73599;SDS011;61877;48.246;9.220;2023-02-16T09:33:37;26.63;;;12.68;;
73599;SDS011;61877;48.246;9.220;2023-02-16T09:36:08;25.35;;;12.23;;
73599;SDS011;61877;48.246;9.220;2023-02-16T09:38:38;25.48;;;12.20;;
73599;SDS011;61877;48.246;9.220;2023-02-16T09:41:06;25.70;;;12.63;;
73599;SDS011;61877;48.246;9.220;2023-02-16T09:43:36;25.10;;;12.10;;
73599;SDS011;61877;48.246;9.220;2023-02-16T09:46:14;23.67;;;11.82;;
73599;SDS011;61877;48.246;9.220;2023-02-16T09:48:46;26.85;;;12.77;;
73599;SDS011;61877;48.246;9.220;2023-02-16T09:51:24;26.02;;;12.77;;
73599;SDS011;61877;48.246;9.220;2023-02-16T09:53:58;25.60;;;13.18;;
73599;SDS011;61877;48.246;9.220;2023-02-16T09:56:28;26.73;;;13.50;;
73599;SDS011;61877;48.246;9.220;2023-02-16T09:59:01;23.45;;;12.25;;
73599;SDS011;61877;48.246;9.220;2023-02-16T10:01:38;26.73;;;15.40;;
73599;SDS011;61877;48.246;9.220;2023-02-16T10:04:17;24.13;;;12.40;;
73599;SDS011;61877;48.246;9.220;2023-02-16T10:06:55;26.70;;;12.52;;
73599;SDS011;61877;48.246;9.220;2023-02-16T10:09:31;23.60;;;11.60;;
73599;SDS011;61877;48.246;9.220;2023-02-16T10:12:00;24.95;;;12.80;;
73599;SDS011;61877;48.246;9.220;2023-02-16T10:14:30;24.15;;;12.27;;
73599;SDS011;61877;48.246;9.220;2023-02-16T10:17:04;21.60;;;11.27;;
73599;SDS011;61877;48.246;9.220;2023-02-16T10:19:38;20.05;;;9.88;;
73599;SDS011;61877;48.246;9.220;2023-02-16T10:22:13;16.27;;;8.00;;
73599;SDS011;61877;48.246;9.220;2023-02-16T10:24:45;15.82;;;7.38;;
73599;SDS011;61877;48.246;9.220;2023-02-16T10:27:17;13.80;;;6.90;;
73599;SDS011;61877;48.246;9.220;2023-02-16T10:29:46;14.23;;;6.72;;
73599;SDS011;61877;48.246;9.220;2023-02-16T10:32:14;15.07;;;6.75;;
73599;SDS011;61877;48.246;9.220;2023-02-16T10:34:49;14.40;;;6.47;;
73599;SDS011;61877;48.246;9.220;2023-02-16T10:37:20;12.77;;;6.05;;
73599;SDS011;61877;48.246;9.220;2023-02-16T10:40:28;13.20;;;6.55;;
73599;SDS011;61877;48.246;9.220;2023-02-16T10:43:11;13.25;;;6.05;;
73599;SDS011;61877;48.246;9.220;2023-02-16T10:45:44;14.13;;;6.70;;
73599;SDS011;61877;48.246;9.220;2023-02-16T10:48:13;11.77;;;5.67;;
73599;SDS011;61877;48.246;9.220;2023-02-16T10:50:39;11.90;;;5.72;;
73599;SDS011;61877;48.246;9.220;2023-02-16T10:53:23;12.37;;;5.80;;
73599;SDS011;61877;48.246;9.220;2023-02-16T10:56:11;12.45;;;5.43;;
73599;SDS011;61877;48.246;9.220;2023-02-16T10:58:49;12.93;;;5.80;;
73599;SDS011;61877;48.246;9.220;2023-02-16T11:01:16;12.43;;;6.00;;
73599;SDS011;61877;48.246;9.220;2023-02-16T11:03:44;12.32;;;5.93;;
73599;SDS011;61877;48.246;9.220;2023-02-16T11:06:13;11.43;;;5.27;;
73599;SDS011;61877;48.246;9.220;2023-02-16T11:11:27;10.80;;;5.22;;
73599;SDS011;61877;48.246;9.220;2023-02-16T11:13:59;11.05;;;4.95;;
73599;SDS011;61877;48.246;9.220;2023-02-16T11:16:28;12.23;;;5.95;;
73599;SDS011;61877;48.246;9.220;2023-02-16T11:18:57;12.93;;;6.00;;
73599;SDS011;61877;48.246;9.220;2023-02-16T11:21:41;12.73;;;6.10;;
73599;SDS011;61877;48.246;9.220;2023-02-16T11:24:23;12.75;;;5.90;;
73599;SDS011;61877;48.246;9.220;2023-02-16T11:27:01;12.73;;;6.47;;
73599;SDS011;61877;48.246;9.220;2023-02-16T11:29:31;12.63;;;5.90;;
73599;SDS011;61877;48.246;9.220;2023-02-16T11:31:58;14.40;;;6.97;;
73599;SDS011;61877;48.246;9.220;2023-02-16T11:34:31;13.63;;;6.70;;
73599;SDS011;61877;48.246;9.220;2023-02-16T11:37:00;14.20;;;6.05;;
73599;SDS011;61877;48.246;9.220;2023-02-16T11:39:33;13.60;;;6.50;;
73599;SDS011;61877;48.246;9.220;2023-02-16T11:42:03;12.70;;;6.43;;
73599;SDS011;61877;48.246;9.220;2023-02-16T11:44:50;13.33;;;6.33;;
73599;SDS011;61877;48.246;9.220;2023-02-16T11:47:22;13.43;;;6.68;;
73599;SDS011;61877;48.246;9.220;2023-02-16T11:49:49;12.75;;;7.05;;
73599;SDS011;61877;48.246;9.220;2023-02-16T11:52:31;12.65;;;6.25;;
73599;SDS011;61877;48.246;9.220;2023-02-16T11:55:00;12.55;;;6.97;;
73599;SDS011;61877;48.246;9.220;2023-02-16T11:57:43;13.90;;;7.63;;
73599;SDS011;61877;48.246;9.220;2023-02-16T12:00:13;13.57;;;7.47;;
73599;SDS011;61877;48.246;9.220;2023-02-16T12:05:57;13.90;;;6.70;;
73599;SDS011;61877;48.246;9.220;2023-02-16T12:08:50;13.70;;;6.93;;
73599;SDS011;61877;48.246;9.220;2023-02-16T12:11:31;13.07;;;7.00;;
73599;SDS011;61877;48.246;9.220;2023-02-16T12:14:14;14.73;;;7.60;;
73599;SDS011;61877;48.246;9.220;2023-02-16T12:16:55;15.57;;;7.18;;
73599;SDS011;61877;48.246;9.220;2023-02-16T12:19:30;14.02;;;8.02;;
73599;SDS011;61877;48.246;9.220;2023-02-16T12:22:06;14.40;;;7.90;;
73599;SDS011;61877;48.246;9.220;2023-02-16T12:24:44;13.90;;;8.17;;
73599;SDS011;61877;48.246;9.220;2023-02-16T12:27:27;15.40;;;8.00;;
73599;SDS011;61877;48.246;9.220;2023-02-16T12:29:59;14.43;;;8.13;;
73599;SDS011;61877;48.246;9.220;2023-02-16T12:35:31;17.05;;;8.50;;
73599;SDS011;61877;48.246;9.220;2023-02-16T12:38:09;13.97;;;7.60;;
73599;SDS011;61877;48.246;9.220;2023-02-16T12:40:58;16.30;;;8.30;;
73599;SDS011;61877;48.246;9.220;2023-02-16T12:43:35;15.57;;;8.32;;
73599;SDS011;61877;48.246;9.220;2023-02-16T12:46:08;14.65;;;7.93;;
73599;SDS011;61877;48.246;9.220;2023-02-16T12:48:40;15.27;;;7.80;;
73599;SDS011;61877;48.246;9.220;2023-02-16T12:51:13;19.53;;;8.30;;
73599;SDS011;61877;48.246;9.220;2023-02-16T12:53:44;16.48;;;7.80;;
73599;SDS011;61877;48.246;9.220;2023-02-16T12:56:16;14.43;;;7.72;;
73599;SDS011;61877;48.246;9.220;2023-02-16T12:58:48;13.60;;;7.65;;
73599;SDS011;61877;48.246;9.220;2023-02-16T13:01:24;14.70;;;7.53;;
73599;SDS011;61877;48.246;9.220;2023-02-16T13:03:55;13.43;;;7.77;;
73599;SDS011;61877;48.246;9.220;2023-02-16T13:06:29;20.40;;;7.90;;
73599;SDS011;61877;48.246;9.220;2023-02-16T13:09:04;13.45;;;6.90;;
73599;SDS011;61877;48.246;9.220;2023-02-16T13:11:42;14.90;;;8.23;;
73599;SDS011;61877;48.246;9.220;2023-02-16T13:14:24;16.70;;;9.18;;
73599;SDS011;61877;48.246;9.220;2023-02-16T13:16:54;21.93;;;11.43;;
73599;SDS011;61877;48.246;9.220;2023-02-16T13:19:24;16.17;;;8.85;;
73599;SDS011;61877;48.246;9.220;2023-02-16T13:21:59;15.43;;;8.32;;
73599;SDS011;61877;48.246;9.220;2023-02-16T13:25:00;14.20;;;8.35;;
73599;SDS011;61877;48.246;9.220;2023-02-16T13:27:41;14.75;;;8.50;;
73599;SDS011;61877;48.246;9.220;2023-02-16T13:30:37;14.33;;;8.17;;
73599;SDS011;61877;48.246;9.220;2023-02-16T13:33:22;13.90;;;7.97;;
73599;SDS011;61877;48.246;9.220;2023-02-16T13:36:08;15.75;;;8.70;;
73599;SDS011;61877;48.246;9.220;2023-02-16T13:39:09;15.07;;;9.23;;
73599;SDS011;61877;48.246;9.220;2023-02-16T13:45:15;14.37;;;8.10;;
73599;SDS011;61877;48.246;9.220;2023-02-16T13:47:46;14.13;;;8.52;;
73599;SDS011;61877;48.246;9.220;2023-02-16T13:50:23;15.55;;;9.48;;
73599;SDS011;61877;48.246;9.220;2023-02-16T13:52:55;15.05;;;9.50;;
73599;SDS011;61877;48.246;9.220;2023-02-16T13:55:34;15.40;;;8.63;;
73599;SDS011;61877;48.246;9.220;2023-02-16T13:58:03;14.70;;;8.47;;
73599;SDS011;61877;48.246;9.220;2023-02-16T14:00:32;15.02;;;9.25;;
73599;SDS011;61877;48.246;9.220;2023-02-16T14:03:03;15.65;;;9.60;;
73599;SDS011;61877;48.246;9.220;2023-02-16T14:05:34;15.48;;;9.65;;
73599;SDS011;61877;48.246;9.220;2023-02-16T14:08:16;15.23;;;9.10;;
73599;SDS011;61877;48.246;9.220;2023-02-16T14:10:56;15.63;;;8.77;;
73599;SDS011;61877;48.246;9.220;2023-02-16T14:13:28;16.80;;;9.63;;
73599;SDS011;61877;48.246;9.220;2023-02-16T14:15:56;17.00;;;9.32;;
73599;SDS011;61877;48.246;9.220;2023-02-16T14:18:29;15.43;;;8.90;;
73599;SDS011;61877;48.246;9.220;2023-02-16T14:21:01;17.58;;;9.43;;
73599;SDS011;61877;48.246;9.220;2023-02-16T14:23:29;15.90;;;8.70;;
73599;SDS011;61877;48.246;9.220;2023-02-16T14:26:01;15.05;;;8.82;;
73599;SDS011;61877;48.246;9.220;2023-02-16T14:28:50;16.55;;;9.30;;
73599;SDS011;61877;48.246;9.220;2023-02-16T14:31:38;15.85;;;9.40;;
73599;SDS011;61877;48.246;9.220;2023-02-16T14:34:14;17.35;;;9.20;;
73599;SDS011;61877;48.246;9.220;2023-02-16T14:37:09;17.13;;;8.83;;
73599;SDS011;61877;48.246;9.220;2023-02-16T14:39:51;17.35;;;9.00;;
73599;SDS011;61877;48.246;9.220;2023-02-16T14:42:19;17.45;;;9.00;;
73599;SDS011;61877;48.246;9.220;2023-02-16T14:44:54;20.23;;;8.68;;
73599;SDS011;61877;48.246;9.220;2023-02-16T14:47:43;18.10;;;9.20;;
73599;SDS011;61877;48.246;9.220;2023-02-16T14:50:25;19.13;;;9.10;;
73599;SDS011;61877;48.246;9.220;2023-02-16T14:53:24;16.98;;;8.63;;
73599;SDS011;61877;48.246;9.220;2023-02-16T14:56:36;17.45;;;8.23;;
73599;SDS011;61877;48.246;9.220;2023-02-16T14:59:10;16.00;;;8.15;;
73599;SDS011;61877;48.246;9.220;2023-02-16T15:01:47;18.77;;;8.57;;
73599;SDS011;61877;48.246;9.220;2023-02-16T15:04:14;18.67;;;9.17;;
73599;SDS011;61877;48.246;9.220;2023-02-16T15:06:54;19.10;;;8.77;;
73599;SDS011;61877;48.246;9.220;2023-02-16T15:09:24;19.33;;;9.80;;